createdAt,value
2022-11-27T00:01:25.405Z,7.80
2022-11-27T00:03:53.213Z,8.15
2022-11-27T00:06:22.890Z,8.82
2022-11-27T00:08:50.218Z,10.27
2022-11-27T00:11:24.033Z,10.05
2022-11-27T00:13:51.232Z,11.35
2022-11-27T00:16:19.422Z,10.57
2022-11-27T00:18:47.551Z,10.13
2022-11-27T00:21:16.830Z,10.15
2022-11-27T00:23:43.730Z,10.68
2022-11-27T00:26:11.150Z,11.65
2022-11-27T00:28:38.374Z,9.48
2022-11-27T00:31:14.677Z,8.23
2022-11-27T00:33:41.262Z,10.85
2022-11-27T00:36:08.575Z,10.27
2022-11-27T00:38:38.954Z,11.02
2022-11-27T00:41:07.778Z,14.93
2022-11-27T00:43:43.683Z,15.63
2022-11-27T00:46:13.113Z,15.45
2022-11-27T00:48:39.744Z,14.60
2022-11-27T00:51:09.953Z,14.70
2022-11-27T00:53:36.868Z,10.85
2022-11-27T00:56:03.662Z,10.82
2022-11-27T00:58:30.715Z,12.15
2022-11-27T01:00:59.505Z,11.75
2022-11-27T01:03:26.981Z,10.90
2022-11-27T01:05:53.854Z,10.20
2022-11-27T01:08:21.596Z,10.63
2022-11-27T01:10:56.315Z,9.15
2022-11-27T01:13:24.712Z,11.73
2022-11-27T01:16:03.286Z,11.70
2022-11-27T01:18:30.525Z,11.70
2022-11-27T01:20:57.421Z,11.05
2022-11-27T01:23:24.679Z,10.02
2022-11-27T01:25:53.848Z,8.32
2022-11-27T01:28:21.826Z,6.95
2022-11-27T01:30:49.037Z,7.55
2022-11-27T01:33:16.313Z,6.80
2022-11-27T01:35:42.936Z,7.35
2022-11-27T01:38:09.550Z,6.43
2022-11-27T01:40:36.093Z,6.60
2022-11-27T01:43:02.627Z,6.85
2022-11-27T01:45:29.336Z,7.13
2022-11-27T01:48:03.144Z,6.75
2022-11-27T01:50:34.223Z,6.20
2022-11-27T01:53:13.872Z,7.32
2022-11-27T01:55:46.396Z,7.43
2022-11-27T01:58:25.494Z,6.68
2022-11-27T02:00:52.402Z,5.85
2022-11-27T02:03:19.142Z,5.97
2022-11-27T02:05:45.889Z,5.20
2022-11-27T02:08:15.559Z,4.10
2022-11-27T02:11:01.819Z,4.30
2022-11-27T02:13:40.916Z,4.95
2022-11-27T02:16:25.924Z,5.22
2022-11-27T02:19:27.990Z,5.75
2022-11-27T02:22:11.328Z,5.40
2022-11-27T02:25:02.414Z,6.88
2022-11-27T02:27:50.835Z,6.10
2022-11-27T02:30:17.854Z,4.90
2022-11-27T02:32:56.153Z,6.53
2022-11-27T02:35:36.780Z,5.00
2022-11-27T02:38:10.700Z,6.13
2022-11-27T02:40:49.526Z,5.45
2022-11-27T02:43:21.368Z,4.68
2022-11-27T02:45:51.270Z,5.22
2022-11-27T02:48:21.993Z,5.68
2022-11-27T02:50:52.007Z,5.13
2022-11-27T02:53:23.968Z,7.82
2022-11-27T02:55:53.456Z,8.85
2022-11-27T02:58:27.937Z,8.93
2022-11-27T03:00:56.861Z,7.05
2022-11-27T03:03:30.670Z,8.63
2022-11-27T03:06:03.563Z,6.47
2022-11-27T03:08:36.630Z,6.10
2022-11-27T03:11:03.148Z,5.68
2022-11-27T03:13:33.442Z,6.85
2022-11-27T03:16:54.481Z,9.30
2022-11-27T03:19:35.660Z,8.88
2022-11-27T03:22:03.680Z,7.80
2022-11-27T03:24:33.279Z,5.88
2022-11-27T03:27:00.437Z,6.38
2022-11-27T03:29:48.700Z,5.97
2022-11-27T03:32:15.553Z,6.38
2022-11-27T03:34:43.203Z,6.30
2022-11-27T03:37:10.172Z,6.75
2022-11-27T03:39:37.188Z,6.90
2022-11-27T03:42:19.046Z,7.30
2022-11-27T03:45:05.888Z,6.65
2022-11-27T03:47:54.074Z,7.28
2022-11-27T03:50:29.015Z,5.93
2022-11-27T03:53:04.348Z,7.55
2022-11-27T03:55:43.516Z,6.93
2022-11-27T03:58:21.036Z,5.70
2022-11-27T04:00:51.601Z,6.70
2022-11-27T04:03:25.019Z,7.05
2022-11-27T04:05:52.131Z,7.55
2022-11-27T04:08:19.116Z,7.35
2022-11-27T04:10:46.269Z,6.82
2022-11-27T04:13:13.164Z,6.72
2022-11-27T04:15:39.772Z,7.82
2022-11-27T04:18:07.098Z,8.20
2022-11-27T04:20:33.798Z,6.53
2022-11-27T04:23:00.421Z,6.70
2022-11-27T04:25:27.513Z,8.25
2022-11-27T04:27:54.170Z,7.18
2022-11-27T04:30:21.152Z,8.52
2022-11-27T04:32:47.705Z,8.57
2022-11-27T04:35:14.261Z,9.02
2022-11-27T04:37:40.904Z,7.50
2022-11-27T04:40:08.084Z,8.05
2022-11-27T04:42:34.674Z,8.85
2022-11-27T04:45:01.227Z,8.88
2022-11-27T04:47:27.835Z,10.45
2022-11-27T04:49:54.455Z,12.18
2022-11-27T04:52:20.999Z,9.93
2022-11-27T04:54:47.555Z,8.55
2022-11-27T04:57:14.220Z,9.50
2022-11-27T04:59:41.004Z,11.55
2022-11-27T05:02:07.552Z,9.30
2022-11-27T05:04:34.170Z,8.63
2022-11-27T05:07:00.779Z,9.35
2022-11-27T05:09:27.338Z,10.32
2022-11-27T05:11:53.932Z,11.13
2022-11-27T05:14:22.630Z,10.65
2022-11-27T05:16:54.407Z,12.90
2022-11-27T05:19:23.437Z,14.60
2022-11-27T05:21:50.725Z,14.80
2022-11-27T05:24:18.677Z,15.30
2022-11-27T05:26:45.355Z,14.43
2022-11-27T05:29:12.972Z,17.55
2022-11-27T05:31:39.854Z,17.95
2022-11-27T05:34:07.288Z,24.13
2022-11-27T05:36:34.373Z,19.75
2022-11-27T05:39:02.247Z,20.23
2022-11-27T05:41:29.110Z,21.45
2022-11-27T05:43:55.688Z,24.75
2022-11-27T05:46:23.364Z,23.77
2022-11-27T05:48:50.464Z,21.40
2022-11-27T05:51:18.007Z,21.77
2022-11-27T05:53:45.226Z,21.98
2022-11-27T05:56:15.716Z,21.05
2022-11-27T05:58:44.026Z,17.63
2022-11-27T06:01:12.394Z,19.10
2022-11-27T06:03:39.447Z,27.00
2022-11-27T06:06:10.383Z,19.42
2022-11-27T06:08:40.690Z,19.15
2022-11-27T06:11:13.164Z,19.30
2022-11-27T06:13:40.605Z,19.10
2022-11-27T06:16:09.395Z,13.70
2022-11-27T06:18:36.084Z,14.30
2022-11-27T06:21:10.046Z,13.73
2022-11-27T06:23:37.138Z,17.20
2022-11-27T06:26:11.518Z,17.13
2022-11-27T06:28:38.528Z,14.88
2022-11-27T06:31:07.370Z,9.45
2022-11-27T06:33:34.561Z,19.63
2022-11-27T06:36:02.434Z,40.22
2022-11-27T06:38:29.044Z,37.92
2022-11-27T06:40:55.666Z,30.40
2022-11-27T06:43:22.260Z,25.17
2022-11-27T06:45:57.102Z,16.38
2022-11-27T06:48:23.801Z,11.85
2022-11-27T06:50:50.528Z,10.45
2022-11-27T06:53:18.345Z,15.43
2022-11-27T06:55:44.935Z,15.50
2022-11-27T06:58:11.998Z,15.07
2022-11-27T07:00:38.537Z,16.55
2022-11-27T07:03:05.174Z,16.73
2022-11-27T07:05:31.852Z,15.10
2022-11-27T07:07:59.077Z,16.17
2022-11-27T07:10:25.787Z,15.57
2022-11-27T07:12:52.360Z,15.55
2022-11-27T07:15:18.901Z,14.63
2022-11-27T07:17:45.430Z,13.82
2022-11-27T07:20:12.352Z,18.35
2022-11-27T07:22:38.920Z,12.95
2022-11-27T07:25:05.997Z,13.32
2022-11-27T07:27:32.567Z,9.07
2022-11-27T07:29:59.132Z,7.18
2022-11-27T07:32:25.686Z,8.55
2022-11-27T07:34:52.259Z,9.52
2022-11-27T07:37:18.925Z,9.07
2022-11-27T07:40:03.550Z,8.07
2022-11-27T07:42:39.084Z,7.25
2022-11-27T07:45:08.463Z,6.63
2022-11-27T07:47:35.380Z,6.32
2022-11-27T07:50:02.124Z,6.18
2022-11-27T07:52:28.676Z,6.88
2022-11-27T07:54:55.241Z,7.32
2022-11-27T07:57:21.843Z,7.70
2022-11-27T07:59:48.521Z,7.57
2022-11-27T08:02:15.453Z,8.27
2022-11-27T08:04:42.427Z,7.15
2022-11-27T08:07:09.195Z,6.03
2022-11-27T08:09:35.812Z,6.32
2022-11-27T08:12:02.393Z,6.20
2022-11-27T08:14:29.096Z,6.70
2022-11-27T08:16:56.104Z,7.55
2022-11-27T08:19:23.181Z,8.32
2022-11-27T08:21:50.180Z,7.50
2022-11-27T08:24:17.027Z,7.97
2022-11-27T08:26:43.629Z,7.75
2022-11-27T08:29:13.189Z,8.27
2022-11-27T08:31:39.906Z,8.73
2022-11-27T08:34:06.546Z,8.07
2022-11-27T08:36:33.416Z,9.25
2022-11-27T08:39:00.163Z,9.20
2022-11-27T08:41:26.792Z,8.82
2022-11-27T08:43:53.363Z,6.88
2022-11-27T08:46:20.053Z,6.90
2022-11-27T08:48:46.657Z,6.32
2022-11-27T08:51:15.231Z,6.30
2022-11-27T08:53:44.461Z,6.45
2022-11-27T08:56:17.832Z,6.88
2022-11-27T09:01:19.995Z,5.68
2022-11-27T09:03:47.802Z,5.63
2022-11-27T09:06:17.437Z,7.35
2022-11-27T09:08:44.865Z,7.55
2022-11-27T09:11:13.685Z,8.82
2022-11-27T09:13:40.568Z,8.48
2022-11-27T09:16:10.601Z,6.35
2022-11-27T09:18:37.269Z,6.88
2022-11-27T09:21:08.996Z,6.25
2022-11-27T09:23:37.533Z,6.15
2022-11-27T09:26:10.102Z,16.25
2022-11-27T09:28:38.430Z,18.87
2022-11-27T09:31:07.051Z,8.15
2022-11-27T09:33:35.303Z,5.28
2022-11-27T09:36:10.359Z,5.88
2022-11-27T09:38:37.293Z,4.28
2022-11-27T09:41:22.612Z,4.95
2022-11-27T09:43:59.376Z,6.93
2022-11-27T09:46:37.310Z,4.60
2022-11-27T09:49:09.112Z,4.18
2022-11-27T09:51:59.159Z,4.25
2022-11-27T09:54:34.813Z,3.00
2022-11-27T09:57:02.711Z,2.47
2022-11-27T09:59:39.564Z,2.60
2022-11-27T10:02:18.101Z,3.03
2022-11-27T10:05:12.360Z,3.80
2022-11-27T10:07:31.892Z,2.42
2022-11-27T10:09:58.506Z,2.80
2022-11-27T10:12:46.598Z,2.42
2022-11-27T10:15:28.188Z,2.15
2022-11-27T10:18:09.306Z,2.72
2022-11-27T10:20:48.809Z,2.20
2022-11-27T10:23:23.812Z,2.60
2022-11-27T10:25:54.916Z,2.72
2022-11-27T10:28:47.772Z,2.20
2022-11-27T10:31:48.603Z,3.15
2022-11-27T10:34:38.523Z,2.78
2022-11-27T10:37:20.589Z,3.60
2022-11-27T10:39:55.526Z,3.95
2022-11-27T10:42:24.761Z,4.68
2022-11-27T10:44:59.766Z,10.48
2022-11-27T10:47:33.306Z,4.90
2022-11-27T10:50:00.670Z,3.95
2022-11-27T10:52:27.326Z,3.28
2022-11-27T10:54:59.054Z,2.85
2022-11-27T10:57:37.938Z,4.03
2022-11-27T11:00:15.637Z,2.47
2022-11-27T11:02:42.396Z,3.25
2022-11-27T11:05:37.366Z,6.93
2022-11-27T11:08:19.859Z,2.88
2022-11-27T11:10:57.295Z,2.53
2022-11-27T11:13:29.468Z,2.15
2022-11-27T11:16:04.951Z,2.75
2022-11-27T11:18:43.915Z,5.57
2022-11-27T11:21:19.205Z,4.30
2022-11-27T11:23:58.355Z,6.10
2022-11-27T11:26:30.730Z,7.72
2022-11-27T11:29:00.002Z,12.73
2022-11-27T11:31:34.814Z,6.80
2022-11-27T11:34:21.069Z,5.43
2022-11-27T11:37:18.037Z,8.20
2022-11-27T11:39:49.143Z,5.20
2022-11-27T11:42:22.154Z,7.00
2022-11-27T11:45:02.177Z,4.35
2022-11-27T11:47:29.589Z,3.38
2022-11-27T11:49:57.409Z,8.27
2022-11-27T11:52:42.367Z,19.30
2022-11-27T11:55:19.041Z,14.18
2022-11-27T11:57:45.597Z,10.77
2022-11-27T12:00:15.901Z,4.28
2022-11-27T12:02:45.681Z,10.15
2022-11-27T12:05:18.864Z,3.90
2022-11-27T12:08:15.664Z,3.65
2022-11-27T12:10:51.385Z,4.93
2022-11-27T12:13:49.380Z,3.40
2022-11-27T12:16:25.056Z,2.88
2022-11-27T12:19:10.077Z,3.97
2022-11-27T12:21:51.197Z,2.58
2022-11-27T12:24:32.898Z,3.83
2022-11-27T12:27:16.239Z,2.85
2022-11-27T12:29:42.730Z,2.60
2022-11-27T12:32:53.098Z,2.45
2022-11-27T12:35:32.206Z,3.22
2022-11-27T12:38:15.608Z,2.30
2022-11-27T12:41:00.261Z,2.33
2022-11-27T12:43:30.499Z,3.88
2022-11-27T12:46:09.984Z,3.97
2022-11-27T12:48:46.342Z,5.18
2022-11-27T12:51:22.784Z,4.78
2022-11-27T12:53:55.781Z,7.50
2022-11-27T12:56:38.799Z,4.97
2022-11-27T12:59:15.128Z,3.38
2022-11-27T13:01:45.811Z,4.15
2022-11-27T13:04:45.441Z,2.30
2022-11-27T13:07:18.833Z,2.90
2022-11-27T13:12:24.685Z,2.95
2022-11-27T13:17:21.558Z,2.67
2022-11-27T13:19:51.187Z,2.72
2022-11-27T13:22:27.449Z,3.13
2022-11-27T13:25:00.960Z,3.45
2022-11-27T13:27:30.560Z,3.67
2022-11-27T13:30:06.726Z,2.45
2022-11-27T13:32:49.882Z,2.40
2022-11-27T13:35:21.443Z,2.50
2022-11-27T13:37:54.533Z,4.50
2022-11-27T13:40:36.830Z,5.90
2022-11-27T13:43:14.325Z,3.03
2022-11-27T13:45:41.107Z,2.33
2022-11-27T13:48:35.014Z,3.20
2022-11-27T13:51:02.099Z,2.63
2022-11-27T13:53:35.325Z,2.92
2022-11-27T13:56:02.814Z,4.68
2022-11-27T13:58:39.768Z,3.60
2022-11-27T14:01:21.707Z,3.28
2022-11-27T14:03:49.467Z,5.93
2022-11-27T14:06:31.521Z,4.65
2022-11-27T14:09:01.178Z,3.92
2022-11-27T14:11:44.589Z,4.55
2022-11-27T14:14:24.073Z,3.80
2022-11-27T14:16:59.808Z,3.33
2022-11-27T14:19:33.489Z,4.88
2022-11-27T14:22:01.367Z,4.60
2022-11-27T14:24:43.481Z,4.57
2022-11-27T14:27:21.680Z,4.32
2022-11-27T14:29:48.809Z,3.88
2022-11-27T14:32:17.203Z,5.85
2022-11-27T14:34:44.439Z,3.05
2022-11-27T14:37:28.495Z,3.08
2022-11-27T14:39:55.592Z,3.53
2022-11-27T14:42:29.769Z,4.47
2022-11-27T14:45:13.809Z,4.70
2022-11-27T14:47:46.309Z,4.43
2022-11-27T14:50:14.711Z,5.37
2022-11-27T14:52:47.180Z,5.00
2022-11-27T14:55:18.593Z,4.63
2022-11-27T14:57:47.449Z,4.30
2022-11-27T15:00:17.560Z,4.88
2022-11-27T15:02:45.714Z,9.00
2022-11-27T15:05:19.484Z,4.75
2022-11-27T15:07:50.747Z,4.47
2022-11-27T15:10:28.693Z,5.82
2022-11-27T15:12:56.179Z,6.00
2022-11-27T15:15:26.490Z,9.45
2022-11-27T15:18:03.535Z,6.80
2022-11-27T15:20:46.792Z,4.75
2022-11-27T15:23:34.330Z,6.97
2022-11-27T15:26:00.808Z,5.30
2022-11-27T15:28:36.989Z,5.00
2022-11-27T15:31:22.349Z,5.40
2022-11-27T15:33:57.443Z,5.82
2022-11-27T15:36:25.434Z,4.22
2022-11-27T15:39:06.461Z,3.38
2022-11-27T15:41:40.829Z,3.45
2022-11-27T15:44:11.402Z,4.78
2022-11-27T15:46:42.554Z,7.47
2022-11-27T15:49:15.242Z,10.18
2022-11-27T15:51:45.033Z,6.90
2022-11-27T15:54:12.982Z,5.63
2022-11-27T15:56:41.091Z,7.03
2022-11-27T15:59:09.896Z,10.23
2022-11-27T16:01:40.081Z,9.73
2022-11-27T16:04:08.253Z,16.90
2022-11-27T16:06:39.796Z,10.23
2022-11-27T16:09:11.807Z,8.40
2022-11-27T16:14:08.993Z,9.38
2022-11-27T16:16:38.771Z,14.55
2022-11-27T16:19:07.615Z,15.02
2022-11-27T16:21:37.119Z,15.10
2022-11-27T16:24:09.998Z,17.00
2022-11-27T16:26:43.032Z,8.60
2022-11-27T16:29:11.711Z,8.38
2022-11-27T16:31:39.770Z,8.70
2022-11-27T16:34:08.376Z,13.85
2022-11-27T16:36:35.613Z,13.13
2022-11-27T16:39:03.395Z,11.90
2022-11-27T16:41:31.755Z,11.02
2022-11-27T16:43:59.763Z,9.98
2022-11-27T16:46:31.330Z,6.22
2022-11-27T16:49:01.060Z,4.88
2022-11-27T16:51:32.485Z,3.35
2022-11-27T16:54:02.576Z,4.97
2022-11-27T16:56:31.836Z,3.47
2022-11-27T16:59:03.541Z,14.40
2022-11-27T17:01:36.486Z,20.15
2022-11-27T17:04:10.238Z,13.88
2022-11-27T17:06:39.958Z,7.78
2022-11-27T17:09:09.659Z,9.02
2022-11-27T17:11:42.154Z,9.50
2022-11-27T17:14:12.435Z,8.13
2022-11-27T17:16:45.361Z,7.30
2022-11-27T17:19:15.492Z,7.13
2022-11-27T17:21:47.014Z,8.32
2022-11-27T17:24:17.054Z,7.85
2022-11-27T17:26:46.265Z,8.00
2022-11-27T17:29:18.596Z,7.32
2022-11-27T17:31:46.801Z,11.85
2022-11-27T17:34:15.108Z,13.43
2022-11-27T17:36:44.377Z,24.45
2022-11-27T17:39:16.465Z,20.25
2022-11-27T17:41:52.299Z,23.45
2022-11-27T17:44:21.463Z,20.50
2022-11-27T17:46:52.690Z,21.10
2022-11-27T17:49:26.207Z,21.00
2022-11-27T17:51:55.386Z,17.55
2022-11-27T17:54:26.377Z,16.60
2022-11-27T17:56:54.508Z,15.27
2022-11-27T17:59:22.726Z,12.50
2022-11-27T18:01:51.678Z,20.58
2022-11-27T18:04:20.639Z,18.83
2022-11-27T18:06:51.669Z,16.30
2022-11-27T18:09:19.959Z,28.75
2022-11-27T18:11:47.980Z,20.50
2022-11-27T18:14:15.993Z,16.58
2022-11-27T18:16:43.164Z,18.70
2022-11-27T18:19:12.502Z,20.42
2022-11-27T18:21:41.527Z,21.40
2022-11-27T18:24:25.439Z,20.25
2022-11-27T18:27:08.840Z,22.65
2022-11-27T18:32:10.113Z,32.50
2022-11-27T18:34:38.452Z,32.05
2022-11-27T18:37:06.504Z,34.65
2022-11-27T18:39:36.298Z,26.25
2022-11-27T18:42:08.946Z,28.08
2022-11-27T18:44:44.277Z,17.80
2022-11-27T18:47:14.271Z,14.02
2022-11-27T18:49:43.316Z,25.48
2022-11-27T18:52:11.983Z,21.02
2022-11-27T18:54:39.495Z,14.85
2022-11-27T18:57:10.020Z,13.07
2022-11-27T18:59:41.335Z,11.90
2022-11-27T19:02:12.381Z,10.23
2022-11-27T19:04:44.809Z,10.80
2022-11-27T19:07:13.173Z,10.55
2022-11-27T19:09:42.473Z,12.10
2022-11-27T19:12:11.111Z,11.85
2022-11-27T19:14:42.180Z,10.18
2022-11-27T19:17:13.448Z,10.30
2022-11-27T19:19:54.205Z,10.82
2022-11-27T19:22:25.778Z,11.05
2022-11-27T19:24:53.873Z,12.18
2022-11-27T19:27:22.930Z,12.75
2022-11-27T19:29:51.765Z,12.93
2022-11-27T19:32:19.762Z,14.60
2022-11-27T19:34:49.731Z,15.50
2022-11-27T19:37:33.168Z,12.90
2022-11-27T19:40:06.234Z,12.85
2022-11-27T19:42:37.838Z,11.70
2022-11-27T19:45:06.254Z,10.65
2022-11-27T19:47:34.319Z,10.15
2022-11-27T19:50:03.420Z,13.07
2022-11-27T19:52:31.338Z,15.70
2022-11-27T19:54:59.289Z,19.65
2022-11-27T19:57:27.539Z,17.35
2022-11-27T19:59:55.920Z,24.63
2022-11-27T20:02:25.188Z,16.25
2022-11-27T20:04:54.443Z,13.45
2022-11-27T20:07:24.439Z,13.45
2022-11-27T20:09:53.383Z,14.15
2022-11-27T20:12:22.214Z,13.30
2022-11-27T20:14:49.014Z,14.10
2022-11-27T20:17:16.711Z,15.10
2022-11-27T20:19:44.832Z,14.35
2022-11-27T20:22:11.839Z,14.50
2022-11-27T20:24:58.124Z,17.73
2022-11-27T20:27:29.378Z,20.42
2022-11-27T20:29:57.722Z,15.18
2022-11-27T20:32:27.283Z,12.40
2022-11-27T20:34:55.227Z,12.82
2022-11-27T20:37:27.612Z,10.63
2022-11-27T20:39:55.623Z,13.20
2022-11-27T20:42:24.289Z,11.63
2022-11-27T20:44:52.239Z,11.43
2022-11-27T20:47:21.077Z,14.90
2022-11-27T20:49:50.083Z,12.20
2022-11-27T20:52:17.868Z,10.38
2022-11-27T20:54:47.546Z,13.68
2022-11-27T20:57:15.612Z,15.82
2022-11-27T20:59:43.738Z,13.93
2022-11-27T21:02:12.747Z,13.07
2022-11-27T21:04:40.763Z,12.18
2022-11-27T21:07:08.670Z,11.65
2022-11-27T21:09:36.450Z,10.00
2022-11-27T21:12:04.485Z,8.60
2022-11-27T21:14:32.309Z,8.50
2022-11-27T21:17:04.605Z,8.23
2022-11-27T21:19:33.079Z,8.02
2022-11-27T21:22:00.889Z,8.20
2022-11-27T21:24:29.706Z,7.72
2022-11-27T21:26:57.505Z,8.60
2022-11-27T21:29:28.506Z,6.80
2022-11-27T21:31:57.852Z,7.65
2022-11-27T21:34:26.008Z,6.53
2022-11-27T21:36:53.896Z,6.15
2022-11-27T21:39:21.878Z,7.85
2022-11-27T21:41:51.644Z,9.52
2022-11-27T21:44:19.818Z,9.10
2022-11-27T21:46:47.784Z,9.52
2022-11-27T21:49:16.437Z,9.98
2022-11-27T21:51:44.164Z,10.63
2022-11-27T21:54:14.462Z,8.32
2022-11-27T21:56:42.669Z,10.68
2022-11-27T21:59:13.167Z,10.93
2022-11-27T22:01:40.543Z,9.82
2022-11-27T22:04:08.222Z,10.00
2022-11-27T22:06:39.229Z,11.00
2022-11-27T22:09:11.901Z,11.55
2022-11-27T22:11:41.880Z,11.98
2022-11-27T22:14:10.020Z,11.85
2022-11-27T22:16:44.347Z,11.15
2022-11-27T22:19:12.470Z,10.50
2022-11-27T22:21:39.118Z,12.60
2022-11-27T22:24:06.008Z,9.85
2022-11-27T22:26:32.720Z,10.80
2022-11-27T22:28:59.964Z,10.52
2022-11-27T22:31:30.017Z,10.55
2022-11-27T22:33:57.599Z,9.98
2022-11-27T22:36:26.088Z,11.52
2022-11-27T22:38:55.318Z,10.80
2022-11-27T22:41:24.381Z,12.77
2022-11-27T22:43:51.647Z,12.38
2022-11-27T22:46:21.829Z,11.73
2022-11-27T22:48:54.884Z,9.43
2022-11-27T22:51:22.707Z,9.85
2022-11-27T22:53:49.355Z,8.95
2022-11-27T22:56:15.989Z,11.15
2022-11-27T22:58:42.977Z,11.43
2022-11-27T23:01:21.308Z,12.52
2022-11-27T23:03:48.086Z,12.15
2022-11-27T23:06:16.465Z,10.57
2022-11-27T23:08:44.828Z,11.75
2022-11-27T23:11:20.471Z,9.95
2022-11-27T23:13:49.832Z,10.95
2022-11-27T23:16:17.745Z,13.90
2022-11-27T23:18:44.595Z,16.52
2022-11-27T23:21:22.797Z,16.60
2022-11-27T23:23:49.449Z,14.50
2022-11-27T23:26:18.930Z,8.13
2022-11-27T23:28:46.987Z,6.97
2022-11-27T23:31:30.039Z,7.97
2022-11-27T23:33:58.512Z,8.43
2022-11-27T23:36:25.444Z,7.20
2022-11-27T23:38:52.054Z,7.88
2022-11-27T23:41:24.369Z,6.93
2022-11-27T23:43:52.595Z,5.55
2022-11-27T23:46:21.540Z,5.40
2022-11-27T23:48:49.008Z,6.45
2022-11-27T23:51:18.514Z,5.25
2022-11-27T23:53:45.721Z,6.00
2022-11-27T23:56:16.470Z,6.88
2022-11-27T23:58:46.917Z,8.20
